createdAt,value
2022-08-01T00:02:02.956Z,21.90
2022-08-01T00:04:32.645Z,21.90
2022-08-01T00:07:04.128Z,21.90
2022-08-01T00:09:33.352Z,21.90
2022-08-01T00:12:07.805Z,21.80
2022-08-01T00:14:37.324Z,21.90
2022-08-01T00:17:07.521Z,21.90
2022-08-01T00:19:37.419Z,22.10
2022-08-01T00:22:09.395Z,21.90
2022-08-01T00:24:38.800Z,21.90
2022-08-01T00:27:07.952Z,21.90
2022-08-01T00:30:09.523Z,21.90
2022-08-01T00:32:32.779Z,21.90
2022-08-01T00:35:05.905Z,21.90
2022-08-01T00:37:39.329Z,21.90
2022-08-01T00:40:10.148Z,21.90
2022-08-01T00:42:43.430Z,21.80
2022-08-01T00:45:13.760Z,21.60
2022-08-01T00:47:54.969Z,21.90
2022-08-01T00:50:24.791Z,21.80
2022-08-01T00:52:58.875Z,21.80
2022-08-01T00:55:33.497Z,21.80
2022-08-01T00:58:06.071Z,21.80
2022-08-01T01:00:52.799Z,21.70
2022-08-01T01:03:58.017Z,21.70
2022-08-01T01:06:31.450Z,21.70
2022-08-01T01:09:24.952Z,21.70
2022-08-01T01:12:06.132Z,21.60
2022-08-01T01:14:47.900Z,21.70
2022-08-01T01:17:49.537Z,21.60
2022-08-01T01:20:15.097Z,21.80
2022-08-01T01:23:02.227Z,21.80
2022-08-01T01:25:57.569Z,21.70
2022-08-01T01:28:36.419Z,21.70
2022-08-01T01:31:14.330Z,21.50
2022-08-01T01:33:47.612Z,21.70
2022-08-01T01:36:19.703Z,21.70
2022-08-01T01:38:49.553Z,21.70
2022-08-01T01:41:20.819Z,21.70
2022-08-01T01:43:51.999Z,21.70
2022-08-01T01:46:35.086Z,21.80
2022-08-01T01:49:06.534Z,21.80
2022-08-01T01:51:37.082Z,21.70
2022-08-01T01:54:08.623Z,21.80
2022-08-01T01:56:49.981Z,21.80
2022-08-01T01:59:25.771Z,21.70
2022-08-01T02:02:08.939Z,21.70
2022-08-01T02:04:43.914Z,21.70
2022-08-01T02:07:14.830Z,21.60
2022-08-01T02:09:45.594Z,21.60
2022-08-01T02:12:17.468Z,21.50
2022-08-01T02:14:48.747Z,21.50
2022-08-01T02:17:22.982Z,21.50
2022-08-01T02:19:53.428Z,21.60
2022-08-01T02:22:29.155Z,21.60
2022-08-01T02:25:03.265Z,21.70
2022-08-01T02:27:38.767Z,21.60
2022-08-01T02:30:11.577Z,21.70
2022-08-01T02:32:45.637Z,21.70
2022-08-01T02:35:22.098Z,21.60
2022-08-01T02:37:52.001Z,21.70
2022-08-01T02:40:21.816Z,21.70
2022-08-01T02:42:53.526Z,21.60
2022-08-01T02:45:28.029Z,21.60
2022-08-01T02:48:04.530Z,21.70
2022-08-01T02:50:36.947Z,21.80
2022-08-01T02:53:09.221Z,21.70
2022-08-01T02:55:39.754Z,21.80
2022-08-01T02:58:09.864Z,21.80
2022-08-01T03:00:43.553Z,21.70
2022-08-01T03:03:18.704Z,21.70
2022-08-01T03:05:48.603Z,21.80
2022-08-01T03:08:19.442Z,21.70
2022-08-01T03:10:50.832Z,21.70
2022-08-01T03:13:21.785Z,21.70
2022-08-01T03:15:51.817Z,21.70
2022-08-01T03:18:24.358Z,21.70
2022-08-01T03:20:56.376Z,21.70
2022-08-01T03:23:29.129Z,21.10
2022-08-01T03:26:08.606Z,21.80
2022-08-01T03:28:39.675Z,21.70
2022-08-01T03:31:08.653Z,21.70
2022-08-01T03:33:38.877Z,21.70
2022-08-01T03:36:11.612Z,21.70
2022-08-01T03:38:43.026Z,21.70
2022-08-01T03:41:15.437Z,21.70
2022-08-01T03:43:49.351Z,21.60
2022-08-01T03:46:25.304Z,21.50
2022-08-01T03:49:01.481Z,21.50
2022-08-01T03:51:31.780Z,21.50
2022-08-01T03:54:03.414Z,21.40
2022-08-01T03:56:33.340Z,21.40
2022-08-01T03:59:04.319Z,21.50
2022-08-01T04:01:34.853Z,21.40
2022-08-01T04:04:07.020Z,21.40
2022-08-01T04:06:35.935Z,21.30
2022-08-01T04:09:04.780Z,21.30
2022-08-01T04:11:33.987Z,21.20
2022-08-01T04:14:02.799Z,21.20
2022-08-01T04:16:38.161Z,21.20
2022-08-01T04:19:09.263Z,21.20
2022-08-01T04:21:38.712Z,21.30
2022-08-01T04:24:13.140Z,21.20
2022-08-01T04:26:43.814Z,21.30
2022-08-01T04:29:15.492Z,21.40
2022-08-01T04:31:46.759Z,21.30
2022-08-01T04:34:20.223Z,21.20
2022-08-01T04:36:50.280Z,21.20
2022-08-01T04:39:21.254Z,21.30
2022-08-01T04:41:51.459Z,21.40
2022-08-01T04:44:20.886Z,21.30
2022-08-01T04:46:55.705Z,21.40
2022-08-01T04:49:26.254Z,21.50
2022-08-01T04:51:59.688Z,21.50
2022-08-01T04:54:29.109Z,21.50
2022-08-01T04:57:01.364Z,21.60
2022-08-01T04:59:42.900Z,21.60
2022-08-01T05:02:15.603Z,21.60
2022-08-01T05:04:46.756Z,21.60
2022-08-01T05:07:16.926Z,21.60
2022-08-01T05:09:47.285Z,21.70
2022-08-01T05:12:17.127Z,21.60
2022-08-01T05:14:49.348Z,21.60
2022-08-01T05:17:18.209Z,21.50
2022-08-01T05:19:48.642Z,21.50
2022-08-01T05:22:17.983Z,21.50
2022-08-01T05:24:47.637Z,21.50
2022-08-01T05:27:18.904Z,21.90
2022-08-01T05:29:48.179Z,21.50
2022-08-01T05:32:17.148Z,21.60
2022-08-01T05:34:46.244Z,21.70
2022-08-01T05:37:20.944Z,21.80
2022-08-01T05:39:51.001Z,21.90
2022-08-01T05:42:19.725Z,21.80
2022-08-01T05:44:49.790Z,21.80
2022-08-01T05:47:18.764Z,21.80
2022-08-01T05:49:48.210Z,21.80
2022-08-01T05:52:20.132Z,21.90
2022-08-01T05:54:50.002Z,22.00
2022-08-01T05:57:19.085Z,22.10
2022-08-01T05:59:50.997Z,22.20
2022-08-01T06:02:19.833Z,22.30
2022-08-01T06:04:48.769Z,22.30
2022-08-01T06:07:19.422Z,22.60
2022-08-01T06:09:48.314Z,22.60
2022-08-01T06:12:17.103Z,22.80
2022-08-01T06:14:45.802Z,22.80
2022-08-01T06:17:14.678Z,23.00
2022-08-01T06:19:44.310Z,23.10
2022-08-01T06:22:13.089Z,23.20
2022-08-01T06:24:43.702Z,23.40
2022-08-01T06:27:22.116Z,23.40
2022-08-01T06:29:54.626Z,23.40
2022-08-01T06:32:27.686Z,23.40
2022-08-01T06:35:00.029Z,23.30
2022-08-01T06:37:33.202Z,23.50
2022-08-01T06:40:16.278Z,24.00
2022-08-01T06:42:49.556Z,24.40
2022-08-01T06:45:19.088Z,24.80
2022-08-01T06:47:48.823Z,24.80
2022-08-01T06:50:22.274Z,24.50
2022-08-01T06:52:52.055Z,24.40
2022-08-01T06:55:25.796Z,24.60
2022-08-01T06:57:58.222Z,25.00
2022-08-01T07:00:30.582Z,25.60
2022-08-01T07:03:02.647Z,25.90
2022-08-01T07:05:32.960Z,25.90
2022-08-01T07:08:02.384Z,25.80
2022-08-01T07:10:40.735Z,25.10
2022-08-01T07:13:09.838Z,24.60
2022-08-01T07:15:40.444Z,24.00
2022-08-01T07:18:10.209Z,23.90
2022-08-01T07:20:50.379Z,23.50
2022-08-01T07:23:21.908Z,23.60
2022-08-01T07:25:55.932Z,23.70
2022-08-01T07:28:27.178Z,23.70
2022-08-01T07:30:56.439Z,23.90
2022-08-01T07:33:48.900Z,24.00
2022-08-01T07:36:18.877Z,24.20
2022-08-01T07:38:51.221Z,23.90
2022-08-01T07:42:07.818Z,23.70
2022-08-01T07:44:39.368Z,23.60
2022-08-01T07:47:54.462Z,23.20
2022-08-01T07:50:35.329Z,23.30
2022-08-01T07:53:05.370Z,23.40
2022-08-01T07:55:36.576Z,23.40
2022-08-01T07:58:11.247Z,23.90
2022-08-01T08:03:28.263Z,25.40
2022-08-01T08:06:00.136Z,25.20
2022-08-01T08:08:33.386Z,24.70
2022-08-01T08:11:02.855Z,24.60
2022-08-01T08:13:36.761Z,24.30
2022-08-01T08:16:26.121Z,24.00
2022-08-01T08:19:11.368Z,23.70
2022-08-01T08:21:49.376Z,23.80
2022-08-01T08:24:27.815Z,23.80
2022-08-01T08:26:58.676Z,24.40
2022-08-01T08:29:41.482Z,25.40
2022-08-01T08:32:13.191Z,27.30
2022-08-01T08:34:42.788Z,28.10
2022-08-01T08:37:21.945Z,28.20
2022-08-01T08:39:50.952Z,27.90
2022-08-01T08:42:22.849Z,27.30
2022-08-01T08:44:59.003Z,26.70
2022-08-01T08:47:36.824Z,26.50
2022-08-01T08:50:08.807Z,26.20
2022-08-01T08:52:41.375Z,26.40
2022-08-01T08:55:17.365Z,26.30
2022-08-01T08:57:52.550Z,26.60
2022-08-01T09:00:30.764Z,26.60
2022-08-01T09:03:02.923Z,26.70
2022-08-01T09:05:38.975Z,26.70
2022-08-01T09:08:15.230Z,27.20
2022-08-01T09:10:52.111Z,27.40
2022-08-01T09:13:24.059Z,27.50
2022-08-01T09:16:00.595Z,27.20
2022-08-01T09:18:32.931Z,27.00
2022-08-01T09:21:17.965Z,26.50
2022-08-01T09:23:54.187Z,26.10
2022-08-01T09:26:38.598Z,25.70
2022-08-01T09:29:11.392Z,25.60
2022-08-01T09:31:52.066Z,26.60
2022-08-01T09:34:30.441Z,27.00
2022-08-01T09:37:08.842Z,27.00
2022-08-01T09:39:43.575Z,27.00
2022-08-01T09:42:29.163Z,26.80
2022-08-01T09:44:59.062Z,27.00
2022-08-01T09:47:42.127Z,27.60
2022-08-01T09:50:15.836Z,27.90
2022-08-01T09:52:57.733Z,27.70
2022-08-01T09:55:27.179Z,27.10
2022-08-01T09:58:05.683Z,26.40
2022-08-01T10:00:45.423Z,25.90
2022-08-01T10:03:36.850Z,25.70
2022-08-01T10:06:25.359Z,25.90
2022-08-01T10:08:58.800Z,26.50
2022-08-01T10:11:36.275Z,27.60
2022-08-01T10:14:07.208Z,28.20
2022-08-01T10:16:53.490Z,28.20
2022-08-01T10:20:04.539Z,28.00
2022-08-01T10:22:44.057Z,28.20
2022-08-01T10:25:43.012Z,28.50
2022-08-01T10:28:24.090Z,28.70
2022-08-01T10:30:54.607Z,28.40
2022-08-01T10:33:51.637Z,27.70
2022-08-01T10:36:25.926Z,26.80
2022-08-01T10:39:05.666Z,26.30
2022-08-01T10:41:59.437Z,25.80
2022-08-01T10:44:32.049Z,25.30
2022-08-01T10:57:04.502Z,24.90
2022-08-01T10:59:49.950Z,25.10
2022-08-01T11:03:02.380Z,24.70
2022-08-01T11:05:49.716Z,25.00
2022-08-01T11:08:28.305Z,25.10
2022-08-01T11:11:09.377Z,25.30
2022-08-01T11:14:14.533Z,25.50
2022-08-01T11:16:44.498Z,25.70
2022-08-01T11:19:21.775Z,25.60
2022-08-01T11:22:06.580Z,25.70
2022-08-01T11:25:16.216Z,25.80
2022-08-01T11:27:52.440Z,25.80
2022-08-01T11:30:29.785Z,25.90
2022-08-01T11:33:11.214Z,25.60
2022-08-01T11:36:01.646Z,25.40
2022-08-01T11:38:32.728Z,25.60
2022-08-01T11:41:13.609Z,25.60
2022-08-01T11:44:32.917Z,25.50
2022-08-01T11:47:11.670Z,25.40
2022-08-01T11:49:56.477Z,25.20
2022-08-01T11:52:35.753Z,25.40
2022-08-01T11:55:16.838Z,25.20
2022-08-01T11:57:51.100Z,25.50
2022-08-01T12:00:22.211Z,25.50
2022-08-01T12:03:04.524Z,25.50
2022-08-01T12:06:33.959Z,25.60
2022-08-01T12:09:38.760Z,25.70
2022-08-01T12:12:15.107Z,25.80
2022-08-01T12:14:47.049Z,25.70
2022-08-01T12:17:19.177Z,25.60
2022-08-01T12:19:55.406Z,25.70
2022-08-01T12:22:26.225Z,25.70
2022-08-01T12:24:56.001Z,25.40
2022-08-01T12:27:33.052Z,25.40
2022-08-01T12:30:06.468Z,25.60
2022-08-01T12:32:38.453Z,25.80
2022-08-01T12:35:33.072Z,26.10
2022-08-01T12:38:04.386Z,26.50
2022-08-01T12:40:38.165Z,26.80
2022-08-01T12:43:15.793Z,26.70
2022-08-01T12:46:17.402Z,26.70
2022-08-01T12:48:48.137Z,26.50
2022-08-01T12:51:18.809Z,26.20
2022-08-01T12:53:53.929Z,26.10
2022-08-01T12:56:35.690Z,25.70
2022-08-01T12:59:26.319Z,25.40
2022-08-01T13:02:02.597Z,25.60
2022-08-01T13:04:33.599Z,26.00
2022-08-01T13:07:05.537Z,26.00
2022-08-01T13:09:42.743Z,25.70
2022-08-01T13:12:34.660Z,25.60
2022-08-01T13:15:21.441Z,25.80
2022-08-01T13:17:51.006Z,25.80
2022-08-01T13:24:01.982Z,25.90
2022-08-01T13:26:11.079Z,26.00
2022-08-01T13:28:43.028Z,26.00
2022-08-01T13:31:16.313Z,26.00
2022-08-01T13:33:54.187Z,26.20
2022-08-01T13:36:32.333Z,26.30
2022-08-01T13:39:19.063Z,26.20
2022-08-01T13:41:48.819Z,26.30
2022-08-01T13:44:20.870Z,26.50
2022-08-01T13:46:51.315Z,26.50
2022-08-01T13:49:21.137Z,26.40
2022-08-01T13:51:54.420Z,26.30
2022-08-01T13:54:25.161Z,26.60
2022-08-01T13:56:58.746Z,25.90
2022-08-01T13:59:29.245Z,25.80
2022-08-01T14:02:00.796Z,25.70
2022-08-01T14:04:31.502Z,25.40
2022-08-01T14:07:05.622Z,25.40
2022-08-01T14:09:45.024Z,25.30
2022-08-01T14:12:30.806Z,25.10
2022-08-01T14:15:01.656Z,25.00
2022-08-01T14:17:31.107Z,25.10
2022-08-01T14:20:00.673Z,25.00
2022-08-01T14:22:31.519Z,25.00
2022-08-01T14:25:03.467Z,24.90
2022-08-01T14:27:33.153Z,24.80
2022-08-01T14:30:04.234Z,24.70
2022-08-01T14:32:34.482Z,24.60
2022-08-01T14:35:04.180Z,24.50
2022-08-01T14:37:38.237Z,24.60
2022-08-01T14:40:10.786Z,24.70
2022-08-01T14:42:40.765Z,24.70
2022-08-01T14:45:11.475Z,24.80
2022-08-01T14:47:41.452Z,24.90
2022-08-01T14:50:13.029Z,25.00
2022-08-01T14:52:45.214Z,25.00
2022-08-01T14:55:15.760Z,25.00
2022-08-01T14:57:44.972Z,25.00
2022-08-01T15:00:18.369Z,24.90
2022-08-01T15:02:47.267Z,24.90
2022-08-01T15:05:20.548Z,24.90
2022-08-01T15:07:54.438Z,25.00
2022-08-01T15:10:24.277Z,25.10
2022-08-01T15:12:53.088Z,25.10
2022-08-01T15:15:22.378Z,25.10
2022-08-01T15:17:53.692Z,25.10
2022-08-01T15:20:26.289Z,25.20
2022-08-01T15:22:58.755Z,25.30
2022-08-01T15:25:40.833Z,25.40
2022-08-01T15:28:12.027Z,25.40
2022-08-01T15:30:41.804Z,25.70
2022-08-01T15:33:14.138Z,25.80
2022-08-01T15:35:44.337Z,25.80
2022-08-01T15:38:14.969Z,25.70
2022-08-01T15:40:45.136Z,25.60
2022-08-01T15:43:15.924Z,25.50
2022-08-01T15:45:47.860Z,25.50
2022-08-01T15:48:18.564Z,25.40
2022-08-01T15:50:47.835Z,25.40
2022-08-01T15:53:23.377Z,25.40
2022-08-01T15:55:57.420Z,25.20
2022-08-01T15:58:26.884Z,25.40
2022-08-01T16:00:55.885Z,25.30
2022-08-01T16:03:24.914Z,25.30
2022-08-01T16:05:55.228Z,25.20
2022-08-01T16:08:26.025Z,25.10
2022-08-01T16:10:55.961Z,25.30
2022-08-01T16:13:28.278Z,24.90
2022-08-01T16:15:57.699Z,25.60
2022-08-01T16:18:27.425Z,25.40
2022-08-01T16:20:57.615Z,25.50
2022-08-01T16:23:31.404Z,25.60
2022-08-01T16:26:02.267Z,25.70
2022-08-01T16:28:31.654Z,25.80
2022-08-01T16:31:17.159Z,25.80
2022-08-01T16:33:55.049Z,25.80
2022-08-01T16:36:26.453Z,25.90
2022-08-01T16:38:57.496Z,25.80
2022-08-01T16:41:27.911Z,25.50
2022-08-01T16:43:59.971Z,25.40
2022-08-01T16:46:29.363Z,25.30
2022-08-01T16:48:58.665Z,25.10
2022-08-01T16:51:28.307Z,25.10
2022-08-01T16:54:25.499Z,25.00
2022-08-01T16:56:57.951Z,24.90
2022-08-01T16:59:41.077Z,24.80
2022-08-01T17:02:13.087Z,25.00
2022-08-01T17:04:44.283Z,24.80
2022-08-01T17:07:14.084Z,24.80
2022-08-01T17:09:45.005Z,24.70
2022-08-01T17:12:14.406Z,24.60
2022-08-01T17:14:53.649Z,24.50
2022-08-01T17:17:22.773Z,24.40
2022-08-01T17:19:54.066Z,24.40
2022-08-01T17:22:24.203Z,24.30
2022-08-01T17:24:54.916Z,24.20
2022-08-01T17:27:27.217Z,24.10
2022-08-01T17:29:57.763Z,24.10
2022-08-01T17:32:28.047Z,24.10
2022-08-01T17:34:57.117Z,24.00
2022-08-01T17:37:26.159Z,24.00
2022-08-01T17:39:57.595Z,23.70
2022-08-01T17:42:30.388Z,23.80
2022-08-01T17:45:01.153Z,23.80
2022-08-01T17:47:49.847Z,23.70
2022-08-01T17:50:20.076Z,23.70
2022-08-01T17:52:51.927Z,23.90
2022-08-01T17:55:55.930Z,24.10
2022-08-01T17:58:13.262Z,24.30
2022-08-01T18:00:43.407Z,24.10
2022-08-01T18:03:20.313Z,24.40
2022-08-01T18:06:00.533Z,24.30
2022-08-01T18:08:31.459Z,24.40
2022-08-01T18:11:02.111Z,24.50
2022-08-01T18:13:31.711Z,24.50
2022-08-01T18:16:00.667Z,24.40
2022-08-01T18:18:33.741Z,24.10
2022-08-01T18:21:03.866Z,24.10
2022-08-01T18:23:33.908Z,24.40
2022-08-01T18:26:07.052Z,24.40
2022-08-01T18:28:41.618Z,24.40
2022-08-01T18:31:16.779Z,24.40
2022-08-01T18:33:46.404Z,24.60
2022-08-01T18:36:31.900Z,24.50
2022-08-01T18:39:04.812Z,24.40
2022-08-01T18:41:37.052Z,24.40
2022-08-01T18:44:11.873Z,24.20
2022-08-01T18:46:43.510Z,24.00
2022-08-01T18:49:13.657Z,24.00
2022-08-01T18:51:45.090Z,23.90
2022-08-01T18:54:15.258Z,23.80
2022-08-01T18:56:47.200Z,23.80
2022-08-01T18:59:16.038Z,23.70
2022-08-01T19:01:45.382Z,23.70
2022-08-01T19:04:14.766Z,23.70
2022-08-01T19:06:47.490Z,23.80
2022-08-01T19:09:21.087Z,23.80
2022-08-01T19:11:51.969Z,23.70
2022-08-01T19:14:21.212Z,23.20
2022-08-01T19:16:50.050Z,23.40
2022-08-01T19:19:24.822Z,23.30
2022-08-01T19:21:58.480Z,23.10
2022-08-01T19:24:27.368Z,23.10
2022-08-01T19:26:59.749Z,23.10
2022-08-01T19:29:43.507Z,23.00
2022-08-01T19:32:12.557Z,22.90
2022-08-01T19:34:50.188Z,22.80
2022-08-01T19:37:22.977Z,22.70
2022-08-01T19:39:54.836Z,22.60
2022-08-01T19:42:26.518Z,22.60
2022-08-01T19:44:56.750Z,22.60
2022-08-01T19:47:25.861Z,22.40
2022-08-01T19:50:15.116Z,22.30
2022-08-01T19:52:47.865Z,22.30
2022-08-01T19:55:17.517Z,22.10
2022-08-01T19:58:10.543Z,22.00
2022-08-01T20:00:42.944Z,22.00
2022-08-01T20:03:17.887Z,21.30
2022-08-01T20:05:47.398Z,21.80
2022-08-01T20:08:18.380Z,21.70
2022-08-01T20:10:49.680Z,20.80
2022-08-01T20:13:21.418Z,21.50
2022-08-01T20:15:55.141Z,21.50
2022-08-01T20:18:24.071Z,21.40
2022-08-01T20:20:55.301Z,21.30
2022-08-01T20:23:27.713Z,21.30
2022-08-01T20:26:20.037Z,21.30
2022-08-01T20:29:05.450Z,21.30
2022-08-01T20:32:03.853Z,21.10
2022-08-01T20:34:37.599Z,21.10
2022-08-01T20:37:12.472Z,21.00
2022-08-01T20:39:45.236Z,21.00
2022-08-01T20:42:15.565Z,20.90
2022-08-01T20:44:54.680Z,20.80
2022-08-01T20:47:23.961Z,20.80
2022-08-01T20:50:27.811Z,20.80
2022-08-01T20:53:20.074Z,20.70
2022-08-01T20:55:52.616Z,20.70
2022-08-01T20:58:33.675Z,20.60
2022-08-01T21:01:09.318Z,21.00
2022-08-01T21:03:57.360Z,20.50
2022-08-01T21:06:33.069Z,20.50
2022-08-01T21:09:05.355Z,20.40
2022-08-01T21:11:41.229Z,20.40
2022-08-01T21:14:16.108Z,20.30
2022-08-01T21:17:02.716Z,20.30
2022-08-01T21:19:36.034Z,20.30
2022-08-01T21:22:18.297Z,20.40
2022-08-01T21:25:13.720Z,20.40
2022-08-01T21:27:48.046Z,20.40
2022-08-01T21:30:19.725Z,20.20
2022-08-01T21:32:58.027Z,20.40
2022-08-01T21:35:28.514Z,20.40
2022-08-01T21:38:02.279Z,20.30
2022-08-01T21:40:39.268Z,20.30
2022-08-01T21:43:24.137Z,20.20
2022-08-01T21:46:01.175Z,20.50
2022-08-01T21:48:37.294Z,20.20
2022-08-01T21:51:42.994Z,20.00
2022-08-01T21:54:48.282Z,19.90
2022-08-01T21:57:32.826Z,19.70
2022-08-01T22:00:25.632Z,19.70
2022-08-01T22:03:14.032Z,19.70
2022-08-01T22:10:04.613Z,19.70
2022-08-01T22:12:42.759Z,19.60
2022-08-01T22:15:45.014Z,19.70
2022-08-01T22:18:37.505Z,19.70
2022-08-01T22:21:40.862Z,19.60
2022-08-01T22:25:04.147Z,19.60
2022-08-01T22:28:32.265Z,19.40
2022-08-01T22:31:47.877Z,19.30
2022-08-01T22:34:47.261Z,19.20
2022-08-01T22:37:57.323Z,19.10
2022-08-01T22:40:29.718Z,19.20
2022-08-01T22:43:01.469Z,19.10
2022-08-01T22:45:51.642Z,19.10
2022-08-01T22:48:34.185Z,19.20
2022-08-01T22:51:29.101Z,18.90
2022-08-01T22:54:09.943Z,18.80
2022-08-01T22:56:47.942Z,18.80
2022-08-01T22:59:42.592Z,18.70
2022-08-01T23:02:23.386Z,18.40
2022-08-01T23:04:56.151Z,18.60
2022-08-01T23:07:28.546Z,18.60
2022-08-01T23:09:59.706Z,18.60
2022-08-01T23:12:29.074Z,18.60
2022-08-01T23:14:58.820Z,18.60
2022-08-01T23:17:32.736Z,18.60
2022-08-01T23:20:08.612Z,18.50
2022-08-01T23:22:38.894Z,18.40
2022-08-01T23:25:12.969Z,18.50
2022-08-01T23:27:55.705Z,18.50
2022-08-01T23:30:34.701Z,18.40
2022-08-01T23:33:04.326Z,18.40
2022-08-01T23:35:38.687Z,18.40
2022-08-01T23:38:18.497Z,18.30
2022-08-01T23:40:51.754Z,18.30
2022-08-01T23:43:23.368Z,18.30
2022-08-01T23:46:12.963Z,18.20
2022-08-01T23:48:44.657Z,18.10
2022-08-01T23:51:21.456Z,18.20
2022-08-01T23:54:12.923Z,18.10
2022-08-01T23:56:44.751Z,18.20
